sensor_id;sensor_type;location;lat;lon;timestamp;pressure;altitude;pressure_sealevel;temperature;humidity
50103;BME280;35993;52.604;10.078;2023-09-30T00:00:27;101907.41;;;14.24;100.00
50103;BME280;35993;52.604;10.078;2023-09-30T00:02:53;101908.69;;;14.15;100.00
50103;BME280;35993;52.604;10.078;2023-09-30T00:05:18;101900.94;;;14.12;100.00
50103;BME280;35993;52.604;10.078;2023-09-30T00:07:47;101916.91;;;14.08;100.00
50103;BME280;35993;52.604;10.078;2023-09-30T00:10:12;101913.13;;;14.09;100.00
50103;BME280;35993;52.604;10.078;2023-09-30T00:12:38;101909.13;;;14.12;100.00
50103;BME280;35993;52.604;10.078;2023-09-30T00:15:04;101923.00;;;14.11;100.00
50103;BME280;35993;52.604;10.078;2023-09-30T00:17:29;101914.81;;;14.11;100.00
50103;BME280;35993;52.604;10.078;2023-09-30T00:19:55;101925.94;;;13.96;100.00
50103;BME280;35993;52.604;10.078;2023-09-30T00:22:21;101930.53;;;13.95;100.00
50103;BME280;35993;52.604;10.078;2023-09-30T00:24:46;101929.69;;;14.01;100.00
50103;BME280;35993;52.604;10.078;2023-09-30T00:27:13;101928.03;;;14.07;100.00
50103;BME280;35993;52.604;10.078;2023-09-30T00:29:40;101924.03;;;13.89;100.00
50103;BME280;35993;52.604;10.078;2023-09-30T00:32:06;101916.69;;;13.90;100.00
50103;BME280;35993;52.604;10.078;2023-09-30T00:34:35;101923.41;;;14.01;100.00
50103;BME280;35993;52.604;10.078;2023-09-30T00:37:01;101935.81;;;14.03;100.00
50103;BME280;35993;52.604;10.078;2023-09-30T00:39:28;101945.25;;;13.87;100.00
50103;BME280;35993;52.604;10.078;2023-09-30T00:41:57;101930.31;;;13.90;100.00
50103;BME280;35993;52.604;10.078;2023-09-30T00:44:25;101925.50;;;13.99;100.00
50103;BME280;35993;52.604;10.078;2023-09-30T00:46:53;101926.16;;;14.01;100.00
50103;BME280;35993;52.604;10.078;2023-09-30T00:49:21;101939.59;;;13.96;100.00
50103;BME280;35993;52.604;10.078;2023-09-30T00:51:47;101945.66;;;13.91;100.00
50103;BME280;35993;52.604;10.078;2023-09-30T00:54:13;101949.00;;;13.80;100.00
50103;BME280;35993;52.604;10.078;2023-09-30T00:56:44;101948.41;;;13.77;100.00
50103;BME280;35993;52.604;10.078;2023-09-30T00:59:16;101946.50;;;13.78;100.00
50103;BME280;35993;52.604;10.078;2023-09-30T01:01:44;101966.03;;;13.75;100.00
50103;BME280;35993;52.604;10.078;2023-09-30T01:04:14;101955.09;;;13.75;100.00
50103;BME280;35993;52.604;10.078;2023-09-30T01:06:40;101943.75;;;13.71;100.00
50103;BME280;35993;52.604;10.078;2023-09-30T01:09:07;101942.91;;;13.64;100.00
50103;BME280;35993;52.604;10.078;2023-09-30T01:11:34;101940.16;;;13.64;100.00
50103;BME280;35993;52.604;10.078;2023-09-30T01:13:59;101942.94;;;13.71;100.00
50103;BME280;35993;52.604;10.078;2023-09-30T01:16:25;101934.09;;;13.69;100.00
50103;BME280;35993;52.604;10.078;2023-09-30T01:18:51;101943.53;;;13.66;100.00
50103;BME280;35993;52.604;10.078;2023-09-30T01:21:18;101939.97;;;13.66;100.00
50103;BME280;35993;52.604;10.078;2023-09-30T01:23:45;101938.31;;;13.65;100.00
50103;BME280;35993;52.604;10.078;2023-09-30T01:26:12;101947.91;;;13.54;100.00
50103;BME280;35993;52.604;10.078;2023-09-30T01:28:41;101945.84;;;13.56;100.00
50103;BME280;35993;52.604;10.078;2023-09-30T01:31:08;101950.00;;;13.45;100.00
50103;BME280;35993;52.604;10.078;2023-09-30T01:33:34;101951.91;;;13.44;100.00
50103;BME280;35993;52.604;10.078;2023-09-30T01:36:02;101955.44;;;13.45;100.00
50103;BME280;35993;52.604;10.078;2023-09-30T01:38:28;101957.78;;;13.48;100.00
50103;BME280;35993;52.604;10.078;2023-09-30T01:40:53;101967.38;;;13.37;100.00
50103;BME280;35993;52.604;10.078;2023-09-30T01:43:19;101973.06;;;13.42;100.00
50103;BME280;35993;52.604;10.078;2023-09-30T01:45:46;101980.84;;;13.39;100.00
50103;BME280;35993;52.604;10.078;2023-09-30T01:48:12;101974.06;;;13.35;100.00
50103;BME280;35993;52.604;10.078;2023-09-30T01:50:42;101985.84;;;13.35;100.00
50103;BME280;35993;52.604;10.078;2023-09-30T01:53:07;101984.63;;;13.38;100.00
50103;BME280;35993;52.604;10.078;2023-09-30T01:55:35;101995.56;;;13.51;100.00
50103;BME280;35993;52.604;10.078;2023-09-30T01:58:01;102001.22;;;13.43;100.00
50103;BME280;35993;52.604;10.078;2023-09-30T02:00:27;102000.13;;;13.37;100.00
50103;BME280;35993;52.604;10.078;2023-09-30T02:02:57;101980.00;;;13.45;100.00
50103;BME280;35993;52.604;10.078;2023-09-30T02:05:24;101972.09;;;13.57;100.00
50103;BME280;35993;52.604;10.078;2023-09-30T02:07:50;101976.00;;;13.41;100.00
50103;BME280;35993;52.604;10.078;2023-09-30T02:10:16;101974.97;;;13.42;100.00
50103;BME280;35993;52.604;10.078;2023-09-30T02:12:47;101979.78;;;13.40;100.00
50103;BME280;35993;52.604;10.078;2023-09-30T02:15:13;101985.22;;;13.40;100.00
50103;BME280;35993;52.604;10.078;2023-09-30T02:17:39;101989.97;;;13.24;100.00
50103;BME280;35993;52.604;10.078;2023-09-30T02:20:06;101996.28;;;13.25;100.00
50103;BME280;35993;52.604;10.078;2023-09-30T02:22:43;101988.50;;;13.28;100.00
50103;BME280;35993;52.604;10.078;2023-09-30T02:25:10;101994.41;;;13.32;100.00
50103;BME280;35993;52.604;10.078;2023-09-30T02:27:39;101985.84;;;13.35;100.00
50103;BME280;35993;52.604;10.078;2023-09-30T02:30:05;101989.03;;;13.39;100.00
50103;BME280;35993;52.604;10.078;2023-09-30T02:32:31;101998.00;;;13.33;100.00
50103;BME280;35993;52.604;10.078;2023-09-30T02:34:58;101987.97;;;13.40;100.00
50103;BME280;35993;52.604;10.078;2023-09-30T02:37:24;101989.38;;;13.36;100.00
50103;BME280;35993;52.604;10.078;2023-09-30T02:39:50;101993.56;;;13.25;100.00
50103;BME280;35993;52.604;10.078;2023-09-30T02:42:16;101977.16;;;13.18;100.00
50103;BME280;35993;52.604;10.078;2023-09-30T02:44:42;101985.78;;;13.28;100.00
50103;BME280;35993;52.604;10.078;2023-09-30T02:47:08;101989.63;;;12.99;100.00
50103;BME280;35993;52.604;10.078;2023-09-30T02:49:35;101987.31;;;12.89;100.00
50103;BME280;35993;52.604;10.078;2023-09-30T02:52:00;101998.78;;;12.85;100.00
50103;BME280;35993;52.604;10.078;2023-09-30T02:54:26;102010.56;;;12.85;100.00
50103;BME280;35993;52.604;10.078;2023-09-30T02:56:52;102002.53;;;12.77;100.00
50103;BME280;35993;52.604;10.078;2023-09-30T02:59:18;101997.72;;;12.79;100.00
50103;BME280;35993;52.604;10.078;2023-09-30T03:01:44;102010.91;;;12.75;100.00
50103;BME280;35993;52.604;10.078;2023-09-30T03:04:10;102010.91;;;12.75;100.00
50103;BME280;35993;52.604;10.078;2023-09-30T03:06:38;102014.94;;;12.86;100.00
50103;BME280;35993;52.604;10.078;2023-09-30T03:09:04;102015.94;;;12.78;100.00
50103;BME280;35993;52.604;10.078;2023-09-30T03:11:31;102019.91;;;12.76;100.00
50103;BME280;35993;52.604;10.078;2023-09-30T03:13:57;102015.91;;;12.72;100.00
50103;BME280;35993;52.604;10.078;2023-09-30T03:16:24;102024.81;;;12.87;100.00
50103;BME280;35993;52.604;10.078;2023-09-30T03:18:50;102019.00;;;12.97;100.00
50103;BME280;35993;52.604;10.078;2023-09-30T03:21:16;102024.91;;;13.01;100.00
50103;BME280;35993;52.604;10.078;2023-09-30T03:23:42;102017.78;;;13.06;100.00
50103;BME280;35993;52.604;10.078;2023-09-30T03:26:08;102012.56;;;13.11;100.00
50103;BME280;35993;52.604;10.078;2023-09-30T03:28:38;101997.91;;;13.13;100.00
50103;BME280;35993;52.604;10.078;2023-09-30T03:31:05;102005.50;;;13.24;100.00
50103;BME280;35993;52.604;10.078;2023-09-30T03:33:34;102006.53;;;13.23;100.00
50103;BME280;35993;52.604;10.078;2023-09-30T03:36:00;102004.47;;;13.25;100.00
50103;BME280;35993;52.604;10.078;2023-09-30T03:38:26;102006.75;;;13.21;100.00
50103;BME280;35993;52.604;10.078;2023-09-30T03:40:52;102010.06;;;13.10;100.00
50103;BME280;35993;52.604;10.078;2023-09-30T03:43:20;102005.00;;;13.07;100.00
50103;BME280;35993;52.604;10.078;2023-09-30T03:45:46;102007.28;;;13.03;100.00
50103;BME280;35993;52.604;10.078;2023-09-30T03:48:12;102017.78;;;13.06;100.00
50103;BME280;35993;52.604;10.078;2023-09-30T03:50:42;102010.94;;;13.17;100.00
50103;BME280;35993;52.604;10.078;2023-09-30T03:53:08;102008.13;;;13.04;100.00
50103;BME280;35993;52.604;10.078;2023-09-30T03:55:34;102007.00;;;12.91;100.00
50103;BME280;35993;52.604;10.078;2023-09-30T03:58:00;102000.53;;;12.99;100.00
50103;BME280;35993;52.604;10.078;2023-09-30T04:00:26;101993.34;;;12.85;100.00
50103;BME280;35993;52.604;10.078;2023-09-30T04:02:51;101999.44;;;12.87;100.00
50103;BME280;35993;52.604;10.078;2023-09-30T04:05:23;101993.84;;;13.02;100.00
50103;BME280;35993;52.604;10.078;2023-09-30T04:07:55;101988.66;;;13.07;100.00
50103;BME280;35993;52.604;10.078;2023-09-30T04:10:20;101985.25;;;12.98;100.00
50103;BME280;35993;52.604;10.078;2023-09-30T04:12:48;101978.34;;;13.02;100.00
50103;BME280;35993;52.604;10.078;2023-09-30T04:15:14;101996.16;;;12.98;100.00
50103;BME280;35993;52.604;10.078;2023-09-30T04:17:39;101997.22;;;13.04;100.00
50103;BME280;35993;52.604;10.078;2023-09-30T04:20:08;102008.38;;;13.09;100.00
50103;BME280;35993;52.604;10.078;2023-09-30T04:22:39;102008.34;;;13.02;100.00
50103;BME280;35993;52.604;10.078;2023-09-30T04:25:05;101998.00;;;12.91;100.00
50103;BME280;35993;52.604;10.078;2023-09-30T04:27:34;102002.78;;;12.89;100.00
50103;BME280;35993;52.604;10.078;2023-09-30T04:30:01;102008.25;;;12.89;100.00
50103;BME280;35993;52.604;10.078;2023-09-30T04:32:37;102009.06;;;12.83;100.00
50103;BME280;35993;52.604;10.078;2023-09-30T04:35:07;102016.28;;;12.97;100.00
50103;BME280;35993;52.604;10.078;2023-09-30T04:37:37;102014.38;;;12.98;100.00
50103;BME280;35993;52.604;10.078;2023-09-30T04:40:09;102004.94;;;12.93;100.00
50103;BME280;35993;52.604;10.078;2023-09-30T04:42:44;102008.25;;;12.89;100.00
50103;BME280;35993;52.604;10.078;2023-09-30T04:45:10;102011.63;;;12.91;100.00
50103;BME280;35993;52.604;10.078;2023-09-30T04:47:37;102009.31;;;12.88;100.00
50103;BME280;35993;52.604;10.078;2023-09-30T04:50:07;102019.38;;;12.94;100.00
50103;BME280;35993;52.604;10.078;2023-09-30T04:52:34;102017.31;;;12.96;100.00
50103;BME280;35993;52.604;10.078;2023-09-30T04:55:01;102025.84;;;12.86;100.00
50103;BME280;35993;52.604;10.078;2023-09-30T04:57:27;102028.97;;;12.83;100.00
50103;BME280;35993;52.604;10.078;2023-09-30T04:59:54;102030.50;;;12.92;100.00
50103;BME280;35993;52.604;10.078;2023-09-30T05:02:20;102030.00;;;12.82;100.00
50103;BME280;35993;52.604;10.078;2023-09-30T05:04:45;102019.97;;;12.83;100.00
50103;BME280;35993;52.604;10.078;2023-09-30T05:07:11;102022.69;;;12.83;100.00
50103;BME280;35993;52.604;10.078;2023-09-30T05:09:39;102023.31;;;12.85;100.00
50103;BME280;35993;52.604;10.078;2023-09-30T05:12:06;102027.09;;;12.84;100.00
50103;BME280;35993;52.604;10.078;2023-09-30T05:14:32;102025.47;;;12.89;100.00
50103;BME280;35993;52.604;10.078;2023-09-30T05:16:58;102019.81;;;12.91;100.00
50103;BME280;35993;52.604;10.078;2023-09-30T05:19:25;102030.72;;;12.98;100.00
50103;BME280;35993;52.604;10.078;2023-09-30T05:21:51;102027.97;;;12.91;100.00
50103;BME280;35993;52.604;10.078;2023-09-30T05:24:17;102023.78;;;12.88;100.00
50103;BME280;35993;52.604;10.078;2023-09-30T05:26:49;102026.50;;;12.88;100.00
50103;BME280;35993;52.604;10.078;2023-09-30T05:29:15;102034.50;;;12.97;100.00
50103;BME280;35993;52.604;10.078;2023-09-30T05:31:42;102031.59;;;12.98;100.00
50103;BME280;35993;52.604;10.078;2023-09-30T05:34:07;102039.16;;;13.03;100.00
50103;BME280;35993;52.604;10.078;2023-09-30T05:36:35;102035.34;;;12.97;100.00
50103;BME280;35993;52.604;10.078;2023-09-30T05:39:00;102042.44;;;12.91;100.00
50103;BME280;35993;52.604;10.078;2023-09-30T05:41:26;102043.75;;;12.95;100.00
50103;BME280;35993;52.604;10.078;2023-09-30T05:43:51;102044.41;;;13.04;100.00
50103;BME280;35993;52.604;10.078;2023-09-30T05:46:18;102046.84;;;12.92;100.00
50103;BME280;35993;52.604;10.078;2023-09-30T05:48:45;102049.00;;;12.97;100.00
50103;BME280;35993;52.604;10.078;2023-09-30T05:51:10;102048.38;;;13.02;100.00
50103;BME280;35993;52.604;10.078;2023-09-30T05:53:40;102052.78;;;13.03;100.00
50103;BME280;35993;52.604;10.078;2023-09-30T05:56:07;102035.38;;;13.04;100.00
50103;BME280;35993;52.604;10.078;2023-09-30T05:58:33;102049.03;;;13.10;100.00
50103;BME280;35993;52.604;10.078;2023-09-30T06:00:59;102042.75;;;13.10;100.00
50103;BME280;35993;52.604;10.078;2023-09-30T06:03:41;102045.28;;;13.11;100.00
50103;BME280;35993;52.604;10.078;2023-09-30T06:06:11;102058.31;;;13.16;100.00
50103;BME280;35993;52.604;10.078;2023-09-30T06:08:38;102056.19;;;13.11;100.00
50103;BME280;35993;52.604;10.078;2023-09-30T06:11:04;102070.94;;;13.24;100.00
50103;BME280;35993;52.604;10.078;2023-09-30T06:13:29;102075.59;;;13.30;100.00
50103;BME280;35993;52.604;10.078;2023-09-30T06:15:57;102083.09;;;13.21;100.00
50103;BME280;35993;52.604;10.078;2023-09-30T06:18:24;102081.88;;;13.31;100.00
50103;BME280;35993;52.604;10.078;2023-09-30T06:20:49;102074.50;;;13.24;100.00
50103;BME280;35993;52.604;10.078;2023-09-30T06:23:16;102087.09;;;13.25;100.00
50103;BME280;35993;52.604;10.078;2023-09-30T06:25:42;102091.66;;;13.18;100.00
50103;BME280;35993;52.604;10.078;2023-09-30T06:28:08;102094.84;;;13.22;100.00
50103;BME280;35993;52.604;10.078;2023-09-30T06:30:35;102090.63;;;13.19;100.00
50103;BME280;35993;52.604;10.078;2023-09-30T06:33:01;102102.22;;;13.28;100.00
50103;BME280;35993;52.604;10.078;2023-09-30T06:35:30;102106.63;;;13.29;100.00
50103;BME280;35993;52.604;10.078;2023-09-30T06:37:58;102110.38;;;13.21;100.00
50103;BME280;35993;52.604;10.078;2023-09-30T06:40:24;102107.00;;;13.19;100.00
50103;BME280;35993;52.604;10.078;2023-09-30T06:42:51;102104.91;;;13.21;100.00
50103;BME280;35993;52.604;10.078;2023-09-30T06:45:17;102092.19;;;13.35;100.00
50103;BME280;35993;52.604;10.078;2023-09-30T06:47:43;102096.19;;;13.33;100.00
50103;BME280;35993;52.604;10.078;2023-09-30T06:50:12;102099.94;;;13.32;100.00
50103;BME280;35993;52.604;10.078;2023-09-30T06:52:42;102097.66;;;13.35;100.00
50103;BME280;35993;52.604;10.078;2023-09-30T06:55:11;102097.75;;;13.55;100.00
50103;BME280;35993;52.604;10.078;2023-09-30T06:57:39;102095.28;;;13.60;100.00
50103;BME280;35993;52.604;10.078;2023-09-30T07:00:07;102111.69;;;13.67;100.00
50103;BME280;35993;52.604;10.078;2023-09-30T07:02:35;102103.53;;;13.74;100.00
50103;BME280;35993;52.604;10.078;2023-09-30T07:05:05;102104.13;;;13.69;100.00
50103;BME280;35993;52.604;10.078;2023-09-30T07:07:31;102111.91;;;13.72;100.00
50103;BME280;35993;52.604;10.078;2023-09-30T07:09:56;102114.06;;;13.84;100.00
50103;BME280;35993;52.604;10.078;2023-09-30T07:12:22;102118.72;;;13.97;100.00
50103;BME280;35993;52.604;10.078;2023-09-30T07:14:47;102123.97;;;13.98;100.00
50103;BME280;35993;52.604;10.078;2023-09-30T07:17:13;102133.22;;;14.04;100.00
50103;BME280;35993;52.604;10.078;2023-09-30T07:19:39;102133.06;;;14.19;100.00
50103;BME280;35993;52.604;10.078;2023-09-30T07:22:04;102137.06;;;14.23;100.00
50103;BME280;35993;52.604;10.078;2023-09-30T07:24:30;102143.16;;;14.25;100.00
50103;BME280;35993;52.604;10.078;2023-09-30T07:26:58;102142.97;;;14.33;100.00
50103;BME280;35993;52.604;10.078;2023-09-30T07:29:24;102154.75;;;14.40;100.00
50103;BME280;35993;52.604;10.078;2023-09-30T07:31:49;102152.41;;;14.31;100.00
50103;BME280;35993;52.604;10.078;2023-09-30T07:34:16;102157.25;;;14.35;100.00
50103;BME280;35993;52.604;10.078;2023-09-30T07:36:43;102157.06;;;14.43;100.00
50103;BME280;35993;52.604;10.078;2023-09-30T07:39:08;102155.41;;;14.56;100.00
50103;BME280;35993;52.604;10.078;2023-09-30T07:41:34;102155.84;;;14.59;100.00
50103;BME280;35993;52.604;10.078;2023-09-30T07:44:02;102150.00;;;14.69;100.00
50103;BME280;35993;52.604;10.078;2023-09-30T07:46:28;102149.97;;;14.83;100.00
50103;BME280;35993;52.604;10.078;2023-09-30T07:48:54;102155.44;;;14.83;100.00
50103;BME280;35993;52.604;10.078;2023-09-30T07:51:20;102152.72;;;15.03;100.00
50103;BME280;35993;52.604;10.078;2023-09-30T07:53:46;102161.34;;;15.13;100.00
50103;BME280;35993;52.604;10.078;2023-09-30T07:56:11;102153.53;;;15.10;100.00
50103;BME280;35993;52.604;10.078;2023-09-30T07:58:37;102159.63;;;15.32;100.00
50103;BME280;35993;52.604;10.078;2023-09-30T08:01:02;102165.91;;;15.39;100.00
50103;BME280;35993;52.604;10.078;2023-09-30T08:03:29;102166.34;;;15.36;100.00
50103;BME280;35993;52.604;10.078;2023-09-30T08:05:55;102170.78;;;15.24;100.00
50103;BME280;35993;52.604;10.078;2023-09-30T08:08:21;102167.19;;;15.30;100.00
50103;BME280;35993;52.604;10.078;2023-09-30T08:10:48;102167.97;;;15.64;100.00
50103;BME280;35993;52.604;10.078;2023-09-30T08:13:13;102159.09;;;15.76;100.00
50103;BME280;35993;52.604;10.078;2023-09-30T08:15:40;102170.41;;;15.79;100.00
50103;BME280;35993;52.604;10.078;2023-09-30T08:18:06;102167.31;;;15.76;100.00
50103;BME280;35993;52.604;10.078;2023-09-30T08:20:33;102172.31;;;15.92;100.00
50103;BME280;35993;52.604;10.078;2023-09-30T08:22:59;102178.81;;;15.98;100.00
50103;BME280;35993;52.604;10.078;2023-09-30T08:25:24;102180.66;;;16.11;100.00
50103;BME280;35993;52.604;10.078;2023-09-30T08:27:50;102189.28;;;16.14;100.00
50103;BME280;35993;52.604;10.078;2023-09-30T08:30:16;102188.41;;;16.20;100.00
50103;BME280;35993;52.604;10.078;2023-09-30T08:32:42;102188.91;;;16.43;100.00
50103;BME280;35993;52.604;10.078;2023-09-30T08:35:08;102182.25;;;16.32;100.00
50103;BME280;35993;52.604;10.078;2023-09-30T08:37:35;102186.81;;;16.38;100.00
50103;BME280;35993;52.604;10.078;2023-09-30T08:40:00;102184.25;;;16.43;100.00
50103;BME280;35993;52.604;10.078;2023-09-30T08:42:27;102181.66;;;16.55;100.00
50103;BME280;35993;52.604;10.078;2023-09-30T08:44:58;102168.66;;;16.76;99.11
50103;BME280;35993;52.604;10.078;2023-09-30T08:47:26;102172.44;;;16.75;97.07
50103;BME280;35993;52.604;10.078;2023-09-30T08:49:59;102173.47;;;16.80;96.27
50103;BME280;35993;52.604;10.078;2023-09-30T08:52:33;102183.16;;;16.83;97.03
50103;BME280;35993;52.604;10.078;2023-09-30T08:54:59;102187.34;;;16.92;97.12
50103;BME280;35993;52.604;10.078;2023-09-30T08:57:25;102182.97;;;17.10;97.94
50103;BME280;35993;52.604;10.078;2023-09-30T08:59:53;102181.56;;;17.00;95.65
50103;BME280;35993;52.604;10.078;2023-09-30T09:02:20;102189.19;;;16.98;95.29
50103;BME280;35993;52.604;10.078;2023-09-30T09:04:46;102189.69;;;17.14;96.22
50103;BME280;35993;52.604;10.078;2023-09-30T09:07:12;102188.72;;;17.27;95.52
50103;BME280;35993;52.604;10.078;2023-09-30T09:09:37;102195.22;;;17.51;95.54
50103;BME280;35993;52.604;10.078;2023-09-30T09:12:03;102192.31;;;17.64;93.74
50103;BME280;35993;52.604;10.078;2023-09-30T09:14:41;102188.44;;;17.53;93.43
50103;BME280;35993;52.604;10.078;2023-09-30T09:17:12;102196.53;;;17.67;90.98
50103;BME280;35993;52.604;10.078;2023-09-30T09:19:39;102206.00;;;17.71;91.81
50103;BME280;35993;52.604;10.078;2023-09-30T09:22:05;102203.16;;;17.59;91.01
50103;BME280;35993;52.604;10.078;2023-09-30T09:24:34;102196.13;;;17.63;89.72
50103;BME280;35993;52.604;10.078;2023-09-30T09:27:13;102204.91;;;17.72;90.82
50103;BME280;35993;52.604;10.078;2023-09-30T09:29:49;102211.78;;;17.63;89.94
50103;BME280;35993;52.604;10.078;2023-09-30T09:32:16;102215.38;;;17.82;88.96
50103;BME280;35993;52.604;10.078;2023-09-30T09:34:44;102207.28;;;17.87;89.54
50103;BME280;35993;52.604;10.078;2023-09-30T09:37:14;102202.25;;;17.84;89.34
50103;BME280;35993;52.604;10.078;2023-09-30T09:40:02;102201.00;;;17.80;87.99
50103;BME280;35993;52.604;10.078;2023-09-30T09:42:32;102191.31;;;17.77;87.46
50103;BME280;35993;52.604;10.078;2023-09-30T09:45:05;102193.09;;;17.72;87.54
50103;BME280;35993;52.604;10.078;2023-09-30T09:47:32;102193.94;;;17.91;87.04
50103;BME280;35993;52.604;10.078;2023-09-30T09:49:58;102200.66;;;17.76;85.37
50103;BME280;35993;52.604;10.078;2023-09-30T09:52:24;102196.81;;;17.77;86.33
50103;BME280;35993;52.604;10.078;2023-09-30T09:54:51;102193.09;;;17.72;85.99
50103;BME280;35993;52.604;10.078;2023-09-30T09:57:19;102186.94;;;17.76;85.85
50103;BME280;35993;52.604;10.078;2023-09-30T09:59:46;102191.63;;;17.88;86.16
50103;BME280;35993;52.604;10.078;2023-09-30T10:02:14;102193.34;;;17.70;85.76
50103;BME280;35993;52.604;10.078;2023-09-30T10:04:47;102185.25;;;17.75;83.73
50103;BME280;35993;52.604;10.078;2023-09-30T10:07:22;102193.41;;;18.00;84.68
50103;BME280;35993;52.604;10.078;2023-09-30T10:09:50;102186.84;;;18.01;83.04
50103;BME280;35993;52.604;10.078;2023-09-30T10:12:20;102187.97;;;18.12;83.25
50103;BME280;35993;52.604;10.078;2023-09-30T10:14:47;102183.31;;;18.13;81.80
50103;BME280;35993;52.604;10.078;2023-09-30T10:17:15;102184.94;;;18.02;81.00
50103;BME280;35993;52.604;10.078;2023-09-30T10:20:06;102191.69;;;18.18;81.55
50103;BME280;35993;52.604;10.078;2023-09-30T10:22:33;102190.00;;;18.36;81.15
50103;BME280;35993;52.604;10.078;2023-09-30T10:24:59;102188.91;;;18.37;81.32
50103;BME280;35993;52.604;10.078;2023-09-30T10:40:51;102198.09;;;18.61;79.59
50103;BME280;35993;52.604;10.078;2023-09-30T10:43:30;102201.66;;;18.61;79.64
50103;BME280;35993;52.604;10.078;2023-09-30T10:45:56;102190.00;;;18.36;77.74
50103;BME280;35993;52.604;10.078;2023-09-30T10:50:55;102210.00;;;18.43;78.28
50103;BME280;35993;52.604;10.078;2023-09-30T10:53:22;102208.94;;;18.25;77.70
50103;BME280;35993;52.604;10.078;2023-09-30T10:55:57;102196.59;;;18.46;77.03
50103;BME280;35993;52.604;10.078;2023-09-30T10:58:46;102193.16;;;18.63;76.41
50103;BME280;35993;52.604;10.078;2023-09-30T11:01:14;102188.78;;;18.74;76.03
50103;BME280;35993;52.604;10.078;2023-09-30T11:03:41;102182.69;;;18.83;76.15
50103;BME280;35993;52.604;10.078;2023-09-30T11:06:14;102174.38;;;18.90;74.32
50103;BME280;35993;52.604;10.078;2023-09-30T11:08:51;102185.25;;;19.09;74.25
50103;BME280;35993;52.604;10.078;2023-09-30T11:11:17;102173.19;;;19.10;71.83
50103;BME280;35993;52.604;10.078;2023-09-30T11:13:43;102180.59;;;18.97;72.64
50103;BME280;35993;52.604;10.078;2023-09-30T11:16:09;102182.09;;;18.81;72.14
50103;BME280;35993;52.604;10.078;2023-09-30T11:18:35;102186.53;;;18.82;73.00
50103;BME280;35993;52.604;10.078;2023-09-30T11:21:10;102189.09;;;18.96;72.31
50103;BME280;35993;52.604;10.078;2023-09-30T11:23:38;102175.94;;;19.10;72.10
50103;BME280;35993;52.604;10.078;2023-09-30T11:26:04;102174.13;;;19.15;71.60
50103;BME280;35993;52.604;10.078;2023-09-30T11:28:41;102169.59;;;19.21;70.86
50103;BME280;35993;52.604;10.078;2023-09-30T11:31:11;102165.72;;;19.46;69.98
50103;BME280;35993;52.604;10.078;2023-09-30T11:33:53;102155.47;;;19.41;69.76
50103;BME280;35993;52.604;10.078;2023-09-30T11:36:22;102150.53;;;19.43;68.43
50103;BME280;35993;52.604;10.078;2023-09-30T11:38:49;102154.00;;;19.51;69.23
50103;BME280;35993;52.604;10.078;2023-09-30T11:41:16;102144.63;;;19.63;69.80
50103;BME280;35993;52.604;10.078;2023-09-30T11:44:04;102143.66;;;19.70;68.82
50103;BME280;35993;52.604;10.078;2023-09-30T11:46:54;102123.63;;;19.74;65.59
50103;BME280;35993;52.604;10.078;2023-09-30T11:49:53;102140.38;;;19.44;67.26
50103;BME280;35993;52.604;10.078;2023-09-30T11:52:30;102146.31;;;19.53;68.17
50103;BME280;35993;52.604;10.078;2023-09-30T11:54:55;102145.13;;;19.48;67.22
50103;BME280;35993;52.604;10.078;2023-09-30T11:57:22;102152.28;;;19.61;67.83
50103;BME280;35993;52.604;10.078;2023-09-30T11:59:48;102145.28;;;19.42;66.78
50103;BME280;35993;52.604;10.078;2023-09-30T12:02:15;102158.22;;;19.29;67.58
50103;BME280;35993;52.604;10.078;2023-09-30T12:04:44;102155.22;;;19.19;67.93
50103;BME280;35993;52.604;10.078;2023-09-30T12:07:11;102155.72;;;19.16;68.67
50103;BME280;35993;52.604;10.078;2023-09-30T12:09:37;102155.69;;;19.28;67.92
50103;BME280;35993;52.604;10.078;2023-09-30T12:12:05;102137.41;;;19.34;67.18
50103;BME280;35993;52.604;10.078;2023-09-30T12:14:36;102152.25;;;19.32;68.17
50103;BME280;35993;52.604;10.078;2023-09-30T12:17:02;102148.31;;;19.28;68.80
50103;BME280;35993;52.604;10.078;2023-09-30T12:19:27;102148.06;;;19.06;67.72
50103;BME280;35993;52.604;10.078;2023-09-30T12:21:53;102139.53;;;19.08;68.68
50103;BME280;35993;52.604;10.078;2023-09-30T12:24:19;102156.31;;;19.06;68.85
50103;BME280;35993;52.604;10.078;2023-09-30T12:26:48;102142.19;;;19.03;68.43
50103;BME280;35993;52.604;10.078;2023-09-30T12:29:18;102145.19;;;19.01;68.47
50103;BME280;35993;52.604;10.078;2023-09-30T12:31:45;102140.16;;;18.98;68.11
50103;BME280;35993;52.604;10.078;2023-09-30T12:34:11;102129.72;;;19.00;68.70
50103;BME280;35993;52.604;10.078;2023-09-30T12:37:03;102129.72;;;19.00;68.36
50103;BME280;35993;52.604;10.078;2023-09-30T12:39:29;102112.03;;;18.96;66.97
50103;BME280;35993;52.604;10.078;2023-09-30T12:41:58;102107.84;;;18.93;66.79
50103;BME280;35993;52.604;10.078;2023-09-30T12:44:23;102121.00;;;18.91;65.50
50103;BME280;35993;52.604;10.078;2023-09-30T12:46:49;102100.16;;;18.83;64.67
50103;BME280;35993;52.604;10.078;2023-09-30T12:49:15;102103.53;;;19.21;65.09
50103;BME280;35993;52.604;10.078;2023-09-30T12:51:40;102093.09;;;19.35;63.44